Time;durP1;ratioP1;P1;durP2;ratioP2;P2;SDS_P1;SDS_P2;PMS_P1;PMS_P2;Temp;Humidity;BMP_temperature;BMP_pressure;BME280_temperature;BME280_humidity;BME280_pressure;Samples;Min_cycle;Max_cycle;Signal;HPM_P1;HPM_P2
2021/11/28 00:01:18;;;;;;;59.80;33.80;;;;;;;1.67;82.84;98329.38;104951;1325;22487;-54
2021/11/28 00:03:47;;;;;;;60.50;34.90;;;;;;;1.63;82.70;98329.43;105979;1318;139554;-55
2021/11/28 00:06:20;;;;;;;64.00;33.30;;;;;;;1.60;82.82;98332.03;106119;1318;23498;-54
2021/11/28 00:09:15;;;;;;;56.10;30.60;;;;;;;1.58;83.00;98332.10;105904;1319;139038;-54
2021/11/28 00:11:43;;;;;;;57.20;31.00;;;;;;;1.60;83.34;98327.77;105903;1318;23574;-55
2021/11/28 00:14:14;;;;;;;57.10;31.80;;;;;;;1.65;83.53;98331.02;105791;1319;138179;-55
2021/11/28 00:16:42;;;;;;;63.00;35.10;;;;;;;1.63;83.28;98335.05;106141;1318;23785;-55
2021/11/28 00:19:11;;;;;;;67.70;37.40;;;;;;;1.58;82.84;98338.90;106009;1321;23234;-55
2021/11/28 00:21:39;;;;;;;67.40;36.00;;;;;;;1.54;83.08;98344.27;104867;1326;137931;-55
2021/11/28 00:24:07;;;;;;;69.10;38.20;;;;;;;1.51;83.18;98343.02;106088;1318;22321;-55
2021/11/28 00:26:36;;;;;;;80.20;41.30;;;;;;;1.45;83.11;98344.75;105968;1318;140051;-55
2021/11/28 00:29:08;;;;;;;72.40;40.10;;;;;;;1.40;82.90;98346.02;106089;1318;22548;-55
2021/11/28 00:31:37;;;;;;;75.20;40.10;;;;;;;1.38;83.17;98349.05;106106;1317;23362;-55
2021/11/28 00:34:05;;;;;;;73.40;39.40;;;;;;;1.35;82.86;98356.81;105956;1318;138042;-55
2021/11/28 00:36:33;;;;;;;75.60;38.20;;;;;;;1.31;82.82;98360.94;106093;1318;22449;-55
2021/11/28 00:39:02;;;;;;;82.10;42.40;;;;;;;1.28;82.77;98362.11;105996;1318;138162;-54
2021/11/28 00:41:33;;;;;;;74.20;40.80;;;;;;;1.27;82.88;98356.35;106102;1318;22490;-55
2021/11/28 00:44:09;;;;;;;66.70;38.50;;;;;;;1.30;83.25;98354.73;106020;1319;138262;-55
2021/11/28 00:46:37;;;;;;;69.70;38.70;;;;;;;1.30;82.98;98356.84;106033;1318;22573;-55
2021/11/28 00:49:14;;;;;;;70.30;40.30;;;;;;;1.23;82.90;98353.76;106090;1318;22397;-55
2021/11/28 00:51:50;;;;;;;74.60;40.10;;;;;;;1.23;83.00;98355.41;105900;1321;138942;-55
2021/11/28 00:54:19;;;;;;;76.90;39.00;;;;;;;1.17;82.95;98350.23;106117;1317;22441;-56
2021/11/28 00:56:47;;;;;;;70.00;39.60;;;;;;;1.15;82.91;98349.66;105980;1318;139067;-56
2021/11/28 00:59:16;;;;;;;68.90;38.80;;;;;;;1.13;82.92;98344.23;105887;1321;23371;-56
2021/11/28 01:01:45;;;;;;;73.00;39.30;;;;;;;1.12;82.92;98341.52;106033;1318;23195;-55
2021/11/28 01:04:14;;;;;;;61.90;34.90;;;;;;;1.09;82.96;98349.73;105973;1318;138821;-55
2021/11/28 01:06:44;;;;;;;63.80;36.60;;;;;;;1.07;83.11;98349.23;106164;1318;23705;-55
2021/11/28 01:09:14;;;;;;;63.90;36.20;;;;;;;1.04;82.93;98344.46;105980;1318;137986;-56
2021/11/28 01:11:42;;;;;;;59.80;33.60;;;;;;;1.00;83.01;98345.99;105988;1321;22537;-55
2021/11/28 01:14:11;;;;;;;53.00;30.00;;;;;;;0.99;83.04;98354.27;105942;1321;138607;-55
2021/11/28 01:16:43;;;;;;;54.80;29.00;;;;;;;0.99;83.36;98357.77;106010;1318;22487;-55
2021/11/28 01:19:19;;;;;;;60.20;32.20;;;;;;;1.06;84.15;98359.45;106115;1318;23338;-55
2021/11/28 01:21:55;;;;;;;63.90;36.40;;;;;;;1.13;84.56;98363.47;105960;1318;138849;-55
2021/11/28 01:24:24;;;;;;;62.70;35.10;;;;;;;1.19;84.90;98364.40;106058;1318;22481;-55
2021/11/28 01:26:53;;;;;;;56.90;30.90;;;;;;;1.24;85.03;98362.41;105685;1318;138449;-55
2021/11/28 01:29:25;;;;;;;59.20;30.70;;;;;;;1.25;84.86;98350.63;106105;1318;22449;-55
2021/11/28 01:31:53;;;;;;;60.40;31.80;;;;;;;1.21;84.51;98349.81;105508;1318;22583;-55
2021/11/28 01:34:22;;;;;;;53.60;29.90;;;;;;;1.19;84.32;98347.83;105952;1323;138800;-55
2021/11/28 01:36:51;;;;;;;54.00;29.70;;;;;;;1.16;84.25;98348.19;106057;1318;22472;-56
2021/11/28 01:39:20;;;;;;;48.70;28.70;;;;;;;1.12;83.87;98341.86;105604;1318;138090;-59
2021/11/28 01:41:49;;;;;;;51.30;28.10;;;;;;;1.08;83.60;98340.45;105830;1320;22537;-59
2021/11/28 01:44:17;;;;;;;49.60;26.80;;;;;;;1.05;83.66;98345.31;105988;1322;139345;-59
2021/11/28 01:46:46;;;;;;;49.60;25.80;;;;;;;1.02;83.45;98348.18;106074;1318;22490;-59
2021/11/28 01:49:15;;;;;;;43.50;25.30;;;;;;;1.01;83.64;98351.59;105944;1321;22524;-59
2021/11/28 01:51:44;;;;;;;47.50;25.50;;;;;;;1.01;83.87;98350.84;105903;1318;138015;-60
2021/11/28 01:54:13;;;;;;;44.10;24.40;;;;;;;1.03;83.91;98353.62;105977;1322;22526;-60
2021/11/28 01:56:43;;;;;;;50.10;27.50;;;;;;;1.05;84.03;98358.30;106052;1318;138491;-60
2021/11/28 01:59:11;;;;;;;62.00;32.10;;;;;;;1.10;84.41;98361.80;106052;1318;22494;-60
2021/11/28 02:01:41;;;;;;;58.80;31.50;;;;;;;1.15;84.71;98361.00;105994;1321;22502;-60
2021/11/28 02:04:14;;;;;;;52.40;28.30;;;;;;;1.21;84.98;98360.39;105926;1320;137880;-60
2021/11/28 02:06:45;;;;;;;57.00;30.50;;;;;;;1.24;84.91;98351.77;105703;1318;23321;-60
2021/11/28 02:09:13;;;;;;;52.80;28.70;;;;;;;1.26;84.91;98345.42;105822;1319;138219;-59
2021/11/28 02:11:43;;;;;;;54.60;28.20;;;;;;;1.30;85.47;98339.61;105998;1318;22505;-60
2021/11/28 02:14:12;;;;;;;52.40;26.70;;;;;;;1.31;85.05;98340.83;105969;1318;139918;-59
2021/11/28 02:17:00;;;;;;;42.30;25.10;;;;;;;1.31;85.02;98334.77;105921;1321;22538;-59
2021/11/28 02:19:29;;;;;;;49.10;25.50;;;;;;;1.33;84.90;98333.30;105994;1318;22438;-59
2021/11/28 02:21:58;;;;;;;41.70;24.20;;;;;;;1.31;84.47;98331.64;106119;1315;139351;-59
2021/11/28 02:24:26;;;;;;;49.10;25.00;;;;;;;1.26;84.24;98331.09;106239;1315;22361;-59
2021/11/28 02:26:54;;;;;;;59.70;28.50;;;;;;;1.23;84.35;98329.40;105633;1316;138099;-59
2021/11/28 02:29:23;;;;;;;55.10;25.30;;;;;;;1.25;84.57;98328.96;106112;1321;22516;-59
2021/11/28 02:31:51;;;;;;;47.00;26.40;;;;;;;1.27;84.79;98325.80;106244;1314;22476;-59
2021/11/28 02:34:21;;;;;;;52.90;27.10;;;;;;;1.26;84.65;98322.85;106061;1316;138443;-59
2021/11/28 02:36:53;;;;;;;45.40;24.20;;;;;;;1.29;84.66;98318.23;106186;1318;23029;-59
2021/11/28 02:39:21;;;;;;;42.20;22.90;;;;;;;1.26;84.25;98316.41;105913;1316;138333;-59
2021/11/28 02:41:49;;;;;;;39.30;25.20;;;;;;;1.20;84.32;98311.23;106103;1318;22487;-59
2021/11/28 02:44:19;;;;;;;42.40;24.30;;;;;;;1.23;84.97;98305.76;105998;1316;139406;-59
2021/11/28 02:46:48;;;;;;;41.30;25.10;;;;;;;1.34;85.71;98298.35;106030;1318;22500;-60
2021/11/28 02:49:16;;;;;;;40.60;24.20;;;;;;;1.48;86.43;98304.35;105114;1322;22488;-60
2021/11/28 02:51:44;;;;;;;40.20;25.30;;;;;;;1.56;86.35;98306.48;106118;1316;138049;-60
2021/11/28 02:54:12;;;;;;;42.80;25.10;;;;;;;1.60;86.47;98309.31;106198;1316;22542;-60
2021/11/28 02:56:41;;;;;;;38.60;25.50;;;;;;;1.62;86.10;98313.17;106083;1316;139236;-60
2021/11/28 02:59:10;;;;;;;46.60;26.90;;;;;;;1.70;86.76;98320.75;106061;1322;22420;-60
2021/11/28 03:01:38;;;;;;;37.70;24.60;;;;;;;1.85;87.37;98329.92;106101;1323;22477;-60
2021/11/28 03:04:32;;;;;;;39.10;25.70;;;;;;;1.98;87.48;98327.50;105999;1316;138116;-60
2021/11/28 03:07:00;;;;;;;37.70;24.70;;;;;;;2.02;87.57;98321.30;106101;1319;23862;-60
2021/11/28 03:09:29;;;;;;;39.90;25.50;;;;;;;2.05;87.50;98318.30;105926;1318;138679;-60
2021/11/28 03:11:57;;;;;;;39.20;23.10;;;;;;;2.09;87.86;98325.46;106214;1321;23641;-60
2021/11/28 03:14:25;;;;;;;35.10;23.30;;;;;;;2.11;87.78;98331.20;106067;1314;138883;-60
2021/11/28 03:18:12;;;;;;;34.60;22.10;;;;;;;2.10;87.15;98324.92;99470;1351;544928;-59
2021/11/28 03:20:41;;;;;;;42.80;22.10;;;;;;;2.06;86.85;98323.81;105302;1329;137914;-61
2021/11/28 03:23:10;;;;;;;39.90;24.00;;;;;;;2.05;86.83;98321.54;105016;1335;22502;-61
2021/11/28 03:25:38;;;;;;;40.70;22.70;;;;;;;2.05;86.90;98326.33;105091;1335;22353;-61
2021/11/28 03:28:14;;;;;;;37.00;22.70;;;;;;;2.08;87.25;98341.56;104962;1335;138501;-61
2021/11/28 03:30:43;;;;;;;35.80;20.70;;;;;;;2.08;87.12;98348.14;105027;1329;129953;-62
2021/11/28 03:33:44;;;;;;;31.60;19.70;;;;;;;2.03;86.87;98342.88;104975;1332;138523;-61
2021/11/28 03:36:18;;;;;;;45.30;25.60;;;;;;;2.01;86.98;98343.07;105287;1326;23567;-61
2021/11/28 03:38:46;;;;;;;30.90;20.90;;;;;;;2.01;87.25;98337.08;105094;1328;137830;-61
2021/11/28 03:41:15;;;;;;;35.80;21.80;;;;;;;2.05;87.28;98347.39;101555;1329;23294;-60
2021/11/28 03:43:43;;;;;;;34.50;21.20;;;;;;;2.05;87.19;98345.99;105338;1330;22400;-61
2021/11/28 03:46:12;;;;;;;33.60;20.10;;;;;;;2.01;87.01;98348.80;105205;1329;139592;-61
2021/11/28 03:48:41;;;;;;;32.90;18.40;;;;;;;1.98;87.04;98348.40;105318;1332;23255;-61
2021/11/28 03:51:15;;;;;;;32.20;17.80;;;;;;;2.00;87.14;98342.76;105098;1331;138158;-61
2021/11/28 03:53:44;;;;;;;27.20;16.90;;;;;;;2.05;87.46;98346.90;105424;1332;22464;-61
2021/11/28 03:56:14;;;;;;;30.00;19.20;;;;;;;2.11;87.57;98351.23;104999;1331;138528;-60
2021/11/28 03:58:43;;;;;;;29.80;18.60;;;;;;;2.15;87.43;98350.64;105129;1330;22490;-61
2021/11/28 04:01:13;;;;;;;28.20;18.00;;;;;;;2.15;87.27;98345.92;105286;1330;22521;-61
2021/11/28 04:03:44;;;;;;;29.00;18.50;;;;;;;2.17;87.19;98342.39;104845;1332;138605;-61
2021/11/28 04:06:35;;;;;;;30.10;17.70;;;;;;;2.14;87.29;98333.08;105439;1326;22469;-61
2021/11/28 04:09:03;;;;;;;26.80;17.90;;;;;;;2.19;87.37;98344.27;105280;1325;138069;-61
2021/11/28 04:11:32;;;;;;;26.60;17.00;;;;;;;2.18;87.32;98341.89;105232;1330;22508;-61
2021/11/28 04:14:00;;;;;;;29.30;17.50;;;;;;;2.23;87.53;98345.29;105263;1328;22406;-61
2021/11/28 04:16:31;;;;;;;25.00;18.10;;;;;;;2.26;87.69;98341.55;105016;1329;137909;-61
2021/11/28 04:19:02;;;;;;;31.60;20.70;;;;;;;2.27;87.57;98334.05;105192;1329;22424;-61
2021/11/28 04:21:30;;;;;;;29.80;19.80;;;;;;;2.27;87.65;98326.09;105032;1331;138114;-61
2021/11/28 04:23:59;;;;;;;29.80;19.90;;;;;;;2.24;87.60;98321.08;106248;1317;22489;-61
2021/11/28 04:26:28;;;;;;;32.50;21.70;;;;;;;2.20;87.91;98317.00;106095;1316;138547;-61
2021/11/28 04:28:57;;;;;;;35.10;22.50;;;;;;;2.25;88.42;98317.11;106160;1316;22477;-61
2021/11/28 04:31:25;;;;;;;33.70;22.60;;;;;;;2.36;89.46;98311.56;106174;1316;22562;-61
2021/11/28 04:33:54;;;;;;;37.50;24.00;;;;;;;2.51;90.33;98314.80;106089;1317;138218;-61
2021/11/28 04:36:23;;;;;;;31.50;21.50;;;;;;;2.64;90.79;98319.87;106212;1316;22404;-61
2021/11/28 04:38:52;;;;;;;31.70;22.10;;;;;;;2.74;90.97;98318.24;106008;1319;138943;-61
2021/11/28 04:41:20;;;;;;;31.10;21.40;;;;;;;2.80;91.31;98324.57;106150;1320;22552;-61
2021/11/28 04:43:54;;;;;;;27.20;18.90;;;;;;;2.87;91.25;98324.70;106064;1319;23161;-61
2021/11/28 04:46:22;;;;;;;26.80;18.80;;;;;;;2.91;91.22;98324.14;105840;1318;138857;-61
2021/11/28 04:48:51;;;;;;;29.30;18.60;;;;;;;2.92;91.40;98330.89;106059;1320;22471;-60
2021/11/28 04:51:25;;;;;;;30.20;19.40;;;;;;;2.97;91.44;98341.54;105982;1319;138676;-60
2021/11/28 04:53:54;;;;;;;29.50;19.20;;;;;;;2.97;91.09;98347.51;106070;1324;22398;-61
2021/11/28 04:56:23;;;;;;;27.50;17.60;;;;;;;2.95;91.18;98344.67;105934;1319;138556;-61
2021/11/28 04:58:54;;;;;;;29.30;19.20;;;;;;;2.94;90.94;98343.62;105881;1319;22480;-61
2021/11/28 05:01:24;;;;;;;26.50;17.80;;;;;;;2.92;90.97;98344.40;106083;1318;23340;-60
2021/11/28 05:03:56;;;;;;;27.20;17.80;;;;;;;2.91;90.78;98346.66;106002;1318;138356;-60
2021/11/28 05:06:53;;;;;;;26.20;16.80;;;;;;;2.88;90.69;98349.48;106090;1321;22468;-61
2021/11/28 05:09:28;;;;;;;22.80;15.40;;;;;;;2.84;90.50;98356.13;105652;1323;138662;-60
2021/11/28 05:11:56;;;;;;;20.70;13.70;;;;;;;2.81;90.46;98358.36;106117;1320;23780;-60
2021/11/28 05:14:29;;;;;;;18.70;14.30;;;;;;;2.75;90.37;98360.14;106157;1316;138085;-61
2021/11/28 05:16:57;;;;;;;20.30;13.90;;;;;;;2.68;90.07;98354.27;106297;1316;22538;-61
2021/11/28 05:19:53;;;;;;;19.10;14.20;;;;;;;2.60;90.03;98354.41;106319;1316;22481;-61
2021/11/28 05:22:28;;;;;;;25.80;16.90;;;;;;;2.54;89.95;98350.77;106120;1316;138545;-61
2021/11/28 05:24:59;;;;;;;24.60;15.80;;;;;;;2.46;89.75;98349.59;106263;1316;22396;-60
2021/11/28 05:27:31;;;;;;;24.30;16.00;;;;;;;2.39;89.67;98346.04;105607;1321;138096;-60
2021/11/28 05:30:00;;;;;;;22.30;14.10;;;;;;;2.38;89.81;98348.66;106235;1316;22590;-61
2021/11/28 05:32:29;;;;;;;23.10;14.30;;;;;;;2.38;89.80;98350.85;106150;1315;138458;-61
2021/11/28 05:35:16;;;;;;;24.70;16.00;;;;;;;2.33;89.65;98346.96;106311;1316;22401;-60
2021/11/28 05:38:08;;;;;;;22.30;14.60;;;;;;;2.26;89.49;98344.50;106208;1316;22502;-60
2021/11/28 05:40:36;;;;;;;28.20;16.80;;;;;;;2.18;89.32;98345.59;103617;1316;138465;-59
2021/11/28 05:43:05;;;;;;;26.00;16.50;;;;;;;2.13;89.51;98342.52;106195;1317;23356;-60
2021/11/28 05:45:34;;;;;;;22.90;13.70;;;;;;;2.11;89.62;98344.54;106128;1316;139218;-60
2021/11/28 05:48:20;;;;;;;20.00;14.20;;;;;;;2.12;89.70;98345.85;106309;1316;22959;-61
2021/11/28 05:51:10;;;;;;;20.00;14.60;;;;;;;2.15;89.94;98347.54;106185;1316;138122;-61
2021/11/28 05:53:39;;;;;;;24.30;13.40;;;;;;;2.18;90.03;98354.41;106270;1315;22461;-60
2021/11/28 05:56:07;;;;;;;23.00;16.30;;;;;;;2.22;90.04;98352.91;106226;1317;22529;-61
2021/11/28 05:58:37;;;;;;;21.90;14.60;;;;;;;2.25;90.02;98359.48;106121;1316;137937;-61
2021/11/28 06:01:05;;;;;;;21.80;16.20;;;;;;;2.27;90.05;98358.61;106191;1316;22547;-61
2021/11/28 06:03:35;;;;;;;25.00;16.00;;;;;;;2.28;90.03;98359.27;106108;1316;137934;-61
2021/11/28 06:06:03;;;;;;;24.30;16.20;;;;;;;2.28;90.10;98358.05;106235;1316;22445;-60
2021/11/28 06:08:53;;;;;;;19.90;14.10;;;;;;;2.28;89.83;98365.30;105550;1318;139187;-61
2021/11/28 06:11:22;;;;;;;25.00;15.60;;;;;;;2.27;89.91;98365.60;106203;1318;22521;-61
2021/11/28 06:13:52;;;;;;;23.00;16.40;;;;;;;2.27;89.89;98364.41;106148;1318;23233;-61
2021/11/28 06:16:35;;;;;;;21.60;15.60;;;;;;;2.25;89.72;98367.16;106084;1315;138220;-60
2021/11/28 06:19:22;;;;;;;27.70;17.00;;;;;;;2.24;89.81;98369.00;106243;1316;22538;-61
2021/11/28 06:22:15;;;;;;;25.20;16.50;;;;;;;2.21;89.79;98368.23;106051;1316;138751;-60
2021/11/28 06:24:45;;;;;;;23.80;15.90;;;;;;;2.18;89.66;98364.63;106210;1316;22491;-60
2021/11/28 06:27:19;;;;;;;27.20;15.70;;;;;;;2.16;89.57;98363.60;106047;1316;139858;-60
2021/11/28 06:29:50;;;;;;;23.70;15.70;;;;;;;2.13;89.49;98355.80;106237;1315;22467;-60
2021/11/28 06:32:21;;;;;;;26.30;16.70;;;;;;;2.10;89.63;98359.40;106080;1316;139684;-60
2021/11/28 06:35:25;;;;;;;24.30;15.20;;;;;;;2.09;89.50;98362.10;105839;1320;22480;-60
2021/11/28 06:38:21;;;;;;;20.50;13.80;;;;;;;2.05;89.51;98365.16;106154;1316;138202;-61
2021/11/28 06:41:10;;;;;;;20.60;14.70;;;;;;;1.99;89.59;98362.73;106073;1316;22418;-61
2021/11/28 06:43:38;;;;;;;23.00;16.40;;;;;;;1.99;89.72;98372.35;106315;1316;22420;-61
2021/11/28 06:46:13;;;;;;;20.80;14.90;;;;;;;1.96;89.79;98370.11;106148;1316;137688;-61
2021/11/28 06:48:41;;;;;;;20.50;14.90;;;;;;;1.96;89.83;98369.04;106175;1316;22562;-61
2021/11/28 06:51:28;;;;;;;22.50;14.70;;;;;;;1.95;89.95;98367.19;106061;1315;138681;-61
2021/11/28 06:53:57;;;;;;;22.40;15.30;;;;;;;1.94;90.11;98370.21;106148;1318;23254;-61
2021/11/28 06:56:34;;;;;;;18.80;13.50;;;;;;;1.94;90.18;98374.85;106118;1316;138705;-61
2021/11/28 06:59:07;;;;;;;19.80;13.80;;;;;;;1.95;90.33;98378.61;105688;1316;22500;-61
2021/11/28 07:01:40;;;;;;;18.10;12.20;;;;;;;1.95;90.24;98378.61;106247;1315;22484;-61
2021/11/28 07:04:28;;;;;;;17.60;11.90;;;;;;;1.92;90.34;98367.86;104868;1321;138718;-61
2021/11/28 07:07:15;;;;;;;17.30;11.70;;;;;;;1.92;90.59;98363.98;106164;1316;22569;-61
2021/11/28 07:09:53;;;;;;;15.70;10.80;;;;;;;1.93;90.52;98365.13;106131;1316;137915;-61
2021/11/28 07:12:21;;;;;;;16.30;11.40;;;;;;;1.95;90.78;98364.23;106230;1315;22392;-61
2021/11/28 07:14:50;;;;;;;11.70;9.40;;;;;;;1.96;90.78;98364.36;105903;1316;138046;-61
2021/11/28 07:17:23;;;;;;;12.50;10.20;;;;;;;1.99;90.83;98368.67;106184;1316;22523;-61
2021/11/28 07:19:52;;;;;;;13.20;10.10;;;;;;;1.99;91.07;98366.48;106098;1316;22372;-59
2021/11/28 07:22:59;;;;;;;15.90;10.50;;;;;;;1.99;91.11;98363.76;106027;1318;22503;-61
2021/11/28 07:25:28;;;;;;;10.70;9.40;;;;;;;1.99;91.08;98364.02;106257;1316;22623;-61
2021/11/28 07:27:57;;;;;;;10.50;8.50;;;;;;;2.01;91.25;98369.31;106098;1316;138138;-61
2021/11/28 07:30:26;;;;;;;10.50;8.30;;;;;;;2.01;91.19;98367.94;105825;1315;23717;-61
2021/11/28 07:33:01;;;;;;;13.10;10.30;;;;;;;2.04;91.35;98362.41;106135;1316;139424;-61
2021/11/28 07:35:47;;;;;;;12.30;9.40;;;;;;;2.07;91.51;98366.25;105307;1322;22627;-62
2021/11/28 07:38:22;;;;;;;12.60;9.90;;;;;;;2.11;91.66;98370.95;106177;1315;22498;-61
2021/11/28 07:40:52;;;;;;;13.60;9.20;;;;;;;2.16;91.82;98380.21;106119;1316;138934;-56
2021/11/28 07:43:48;;;;;;;12.70;10.20;;;;;;;2.22;91.87;98382.30;106201;1316;22318;-56
2021/11/28 07:46:48;;;;;;;13.10;9.00;;;;;;;2.29;91.99;98385.09;105943;1315;139411;-56
2021/11/28 07:49:23;;;;;;;12.70;8.90;;;;;;;2.32;92.17;98381.88;106224;1314;22509;-55
2021/11/28 07:51:52;;;;;;;14.30;10.30;;;;;;;2.36;92.11;98383.17;105716;1315;138077;-55
2021/11/28 07:54:21;;;;;;;15.60;10.50;;;;;;;2.42;92.25;98375.84;106205;1316;22463;-54
2021/11/28 07:56:50;;;;;;;17.70;12.80;;;;;;;2.46;92.38;98369.43;106078;1316;138786;-56
2021/11/28 07:59:37;;;;;;;16.00;11.60;;;;;;;2.52;92.45;98361.90;106236;1316;22253;-56
2021/11/28 08:02:08;;;;;;;14.80;11.00;;;;;;;2.53;92.57;98355.33;106294;1316;22382;-56
2021/11/28 08:04:42;;;;;;;16.80;13.30;;;;;;;2.54;92.66;98350.70;105955;1315;137976;-56
2021/11/28 08:07:31;;;;;;;16.40;10.80;;;;;;;2.61;92.84;98349.77;106141;1316;23257;-56
2021/11/28 08:10:15;;;;;;;18.60;11.90;;;;;;;2.66;92.85;98345.71;106143;1316;139053;-56
2021/11/28 08:12:43;;;;;;;16.20;12.60;;;;;;;2.71;92.87;98355.09;106274;1315;22399;-56
2021/11/28 08:15:16;;;;;;;17.90;13.00;;;;;;;2.77;93.07;98358.22;106180;1316;138189;-56
2021/11/28 08:17:47;;;;;;;21.40;14.00;;;;;;;2.84;93.18;98360.76;106285;1316;22543;-56
2021/11/28 08:20:17;;;;;;;19.40;13.90;;;;;;;2.91;93.05;98359.54;106250;1315;22487;-56
2021/11/28 08:22:46;;;;;;;25.30;16.40;;;;;;;2.96;93.20;98358.90;106182;1315;138007;-56
2021/11/28 08:25:15;;;;;;;24.50;15.70;;;;;;;3.01;93.25;98358.31;106177;1315;22524;-56
2021/11/28 08:27:43;;;;;;;21.60;14.60;;;;;;;3.08;93.24;98357.41;106196;1315;138561;-56
2021/11/28 08:30:14;;;;;;;21.20;14.80;;;;;;;3.13;93.46;98355.70;106292;1315;22303;-55
2021/11/28 08:33:31;;;;;;;19.30;13.50;;;;;;;3.17;93.29;98355.60;105269;1322;138355;-55
2021/11/28 08:36:20;;;;;;;21.80;13.60;;;;;;;3.22;93.34;98364.36;106277;1316;22540;-56
2021/11/28 08:38:49;;;;;;;20.70;13.60;;;;;;;3.25;93.11;98367.83;106099;1315;138803;-56
2021/11/28 08:41:21;;;;;;;19.60;12.90;;;;;;;3.29;93.17;98361.13;106171;1316;23242;-56
2021/11/28 08:43:50;;;;;;;25.00;17.10;;;;;;;3.30;93.31;98354.15;106275;1315;22529;-56
2021/11/28 08:46:20;;;;;;;22.80;15.70;;;;;;;3.31;93.09;98353.42;106230;1316;138456;-56
2021/11/28 08:48:48;;;;;;;30.20;18.50;;;;;;;3.33;93.05;98352.30;106314;1319;22455;-56
2021/11/28 08:51:16;;;;;;;24.20;15.80;;;;;;;3.34;93.19;98350.55;106208;1320;138892;-56
2021/11/28 08:53:46;;;;;;;23.60;14.70;;;;;;;3.38;93.37;98344.07;106301;1315;22446;-57
2021/11/28 08:56:14;;;;;;;26.70;17.10;;;;;;;3.40;93.19;98335.71;106276;1315;22571;-56
2021/11/28 08:58:42;;;;;;;24.10;17.40;;;;;;;3.42;93.26;98335.54;106085;1316;141233;-55
2021/11/28 09:01:10;;;;;;;31.00;18.20;;;;;;;3.45;93.15;98337.55;106321;1316;22806;-56
2021/11/28 09:03:41;;;;;;;31.90;20.30;;;;;;;3.49;93.29;98341.91;106112;1315;139688;-56
2021/11/28 09:06:11;;;;;;;23.80;16.70;;;;;;;3.56;93.62;98343.50;106321;1316;23332;-56
2021/11/28 09:08:39;;;;;;;27.20;17.30;;;;;;;3.63;93.33;98346.61;106306;1315;23127;-56
2021/11/28 09:11:08;;;;;;;27.60;18.50;;;;;;;3.69;93.49;98340.98;106219;1316;138628;-57
2021/11/28 09:13:36;;;;;;;25.30;16.20;;;;;;;3.73;93.38;98344.40;106321;1315;22770;-56
2021/11/28 09:16:08;;;;;;;25.30;17.70;;;;;;;3.77;93.57;98344.23;106207;1316;139295;-57
2021/11/28 09:18:51;;;;;;;27.40;17.70;;;;;;;3.81;93.45;98341.80;106347;1319;22369;-56
2021/11/28 09:21:20;;;;;;;29.00;20.00;;;;;;;3.84;93.14;98344.64;106191;1316;142033;-56
2021/11/28 09:26:35;;;;;;;27.20;18.30;;;;;;;3.84;92.99;98341.41;105897;1320;22452;-56
2021/11/28 09:29:04;;;;;;;32.00;19.80;;;;;;;3.85;93.09;98331.07;106204;1316;139118;-56
2021/11/28 09:31:32;;;;;;;28.00;18.60;;;;;;;3.85;92.96;98328.21;106232;1316;22496;-56
2021/11/28 09:34:01;;;;;;;26.80;17.40;;;;;;;3.83;92.66;98316.05;105689;1316;138392;-56
2021/11/28 09:36:32;;;;;;;27.80;18.00;;;;;;;3.84;92.61;98320.89;106188;1319;22472;-56
2021/11/28 09:39:01;;;;;;;32.80;18.90;;;;;;;3.85;92.62;98320.58;106151;1319;138812;-56
2021/11/28 09:41:51;;;;;;;32.30;20.20;;;;;;;3.88;92.67;98329.14;106254;1316;23528;-56
2021/11/28 09:44:19;;;;;;;30.10;20.10;;;;;;;3.92;92.54;98320.02;106197;1319;22535;-56
2021/11/28 09:46:50;;;;;;;28.40;18.50;;;;;;;3.98;92.84;98312.80;105855;1316;139148;-56
2021/11/28 09:49:18;;;;;;;31.50;19.60;;;;;;;4.04;92.81;98316.61;106237;1316;22439;-56
2021/11/28 09:51:46;;;;;;;30.90;20.00;;;;;;;4.11;92.92;98314.77;106121;1316;138451;-56
2021/11/28 09:54:15;;;;;;;29.10;19.10;;;;;;;4.19;92.82;98314.42;106150;1316;22690;-56
2021/11/28 09:56:43;;;;;;;29.90;18.10;;;;;;;4.25;93.02;98309.17;106223;1316;22477;-56
2021/11/28 09:59:12;;;;;;;30.20;18.70;;;;;;;4.28;92.81;98305.41;106094;1318;139106;-56
2021/11/28 10:01:40;;;;;;;22.70;16.60;;;;;;;4.31;92.49;98305.66;106196;1316;22410;-56
2021/11/28 10:04:08;;;;;;;26.40;17.70;;;;;;;4.33;92.56;98305.95;106037;1318;138230;-57
2021/11/28 10:06:36;;;;;;;24.60;17.40;;;;;;;4.34;92.00;98304.23;106190;1318;22504;-56
2021/11/28 10:09:06;;;;;;;26.10;18.10;;;;;;;4.37;91.92;98296.24;106089;1318;138695;-56
2021/11/28 10:11:38;;;;;;;31.20;18.40;;;;;;;4.39;91.99;98292.83;106206;1315;22463;-56
2021/11/28 10:14:26;;;;;;;30.00;18.50;;;;;;;4.42;91.69;98287.27;106195;1316;22402;-56
2021/11/28 10:16:54;;;;;;;24.60;16.50;;;;;;;4.42;91.71;98290.34;106084;1316;139760;-56
2021/11/28 10:19:23;;;;;;;24.50;16.40;;;;;;;4.42;91.67;98294.93;106159;1316;22461;-56
2021/11/28 10:21:51;;;;;;;21.70;15.60;;;;;;;4.44;91.62;98298.42;106090;1320;138411;-56
2021/11/28 10:24:21;;;;;;;27.90;16.90;;;;;;;4.45;91.47;98297.02;106173;1320;22468;-56
2021/11/28 10:26:57;;;;;;;28.40;17.10;;;;;;;4.46;91.19;98295.20;106070;1318;138828;-56
2021/11/28 10:29:38;;;;;;;29.50;18.20;;;;;;;4.43;91.32;98295.42;106238;1319;22675;-56
2021/11/28 10:32:11;;;;;;;28.60;17.70;;;;;;;4.43;91.07;98294.45;106201;1317;23283;-55
2021/11/28 10:34:40;;;;;;;28.80;18.10;;;;;;;4.43;91.21;98297.00;106079;1316;138485;-56
2021/11/28 10:37:15;;;;;;;27.90;17.30;;;;;;;4.40;90.63;98294.08;106185;1320;22517;-56
2021/11/28 10:39:47;;;;;;;24.90;16.70;;;;;;;4.36;90.70;98297.41;106081;1318;138634;-56
2021/11/28 10:42:23;;;;;;;27.30;17.70;;;;;;;4.34;90.86;98299.92;106227;1315;22477;-56
2021/11/28 10:45:07;;;;;;;29.90;18.30;;;;;;;4.35;90.84;98291.63;104990;1325;139913;-56
2021/11/28 10:47:39;;;;;;;23.70;16.90;;;;;;;4.38;90.79;98289.90;106244;1315;22482;-56
2021/11/28 10:50:07;;;;;;;24.80;16.30;;;;;;;4.43;91.00;98284.59;106229;1315;22489;-56
2021/11/28 10:52:36;;;;;;;27.00;17.50;;;;;;;4.50;91.19;98280.41;106103;1316;139195;-56
2021/11/28 10:55:12;;;;;;;27.60;15.90;;;;;;;4.55;91.00;98287.88;106169;1318;22405;-56
2021/11/28 10:57:40;;;;;;;27.90;18.40;;;;;;;4.54;90.63;98281.43;106096;1315;138832;-56
2021/11/28 11:00:10;;;;;;;26.30;16.90;;;;;;;4.49;89.94;98274.03;106192;1315;22475;-56
2021/11/28 11:02:39;;;;;;;32.40;19.90;;;;;;;4.44;90.16;98274.83;106024;1316;22529;-56
2021/11/28 11:05:12;;;;;;;39.30;21.10;;;;;;;4.36;90.29;98263.45;106132;1315;138482;-56
2021/11/28 11:07:53;;;;;;;27.40;17.40;;;;;;;4.34;90.29;98263.79;106227;1315;22354;-56
2021/11/28 11:10:41;;;;;;;28.40;18.00;;;;;;;4.32;90.44;98261.72;106140;1315;139225;-56
2021/11/28 11:13:19;;;;;;;35.50;20.40;;;;;;;4.29;90.54;98259.36;106146;1318;22467;-56
2021/11/28 11:16:02;;;;;;;34.40;21.30;;;;;;;4.28;90.47;98265.71;106080;1315;138995;-56
2021/11/28 11:18:31;;;;;;;32.90;21.30;;;;;;;4.26;90.50;98265.63;106250;1315;23151;-56
2021/11/28 11:21:04;;;;;;;29.90;19.10;;;;;;;4.22;90.45;98264.31;106072;1315;140754;-56
2021/11/28 11:23:36;;;;;;;28.40;18.20;;;;;;;4.20;90.76;98265.85;106216;1316;23393;-56
2021/11/28 11:26:22;;;;;;;28.10;18.70;;;;;;;4.14;90.25;98259.64;106229;1315;22400;-56
2021/11/28 11:29:11;;;;;;;31.20;20.10;;;;;;;4.10;90.70;98259.67;105927;1318;139377;-56
2021/11/28 11:31:41;;;;;;;31.70;19.70;;;;;;;4.07;90.76;98272.50;105741;1315;332758;-57
2021/11/28 11:34:29;;;;;;;35.60;21.20;;;;;;;4.03;90.83;98274.58;106121;1315;139072;-56
2021/11/28 11:37:04;;;;;;;31.90;20.80;;;;;;;3.99;91.14;98267.00;106230;1315;22505;-56
2021/11/28 11:39:33;;;;;;;29.20;19.70;;;;;;;3.97;91.21;98269.62;106112;1316;138239;-53
2021/11/28 11:42:01;;;;;;;29.10;20.40;;;;;;;3.96;91.51;98267.70;105519;1320;22478;-52
2021/11/28 11:44:30;;;;;;;29.90;21.00;;;;;;;3.94;91.61;98262.98;106201;1318;22414;-53